Terminal Aerodrome Forecast
Issued by NWS

Home | Current Version | Previous Version | Text Only | Print | Product List | Glossary On
Versions: 1 2 3 4 5 6 7 8 9 10 11 12 13
035
FTUS42 TJSJ 251120
TAFISX
TAF
TISX 251120Z 2512/2612 03004KT P6SM FEW022
     FM251400 11010KT P6SM FEW030 SCT050
     FM252300 04004KT P6SM FEW025=

USA.gov is the U.S. government's official web portal to all federal, state and local government web resources and services.